EGCNEGKK

Guest
Details From EGCN - Doncaster Sheffield
To EGKK - London Gatwick
Flight Number -
Tags generated
Created
Modified
Stats Distance 143 nm / 265 km
Max Altitude 14,100 ft / 4,298 m
Waypoints 3
Social Downloads 1
Likes 0
Share VATSIM

Download

Looking for another format? Having issues loading an existing format? Contact us
Advertisement - Login to hide

Notes

Basic altitude profile: - Ascent Rate: 2500ft/min - Ascent Speed: 250kts - Cruise Altitude: 35000ft - Cruise Speed: 420kts - Descent Rate: 1500ft/min - Descent Speed: 250kts Options: - Use NATs: yes - Use PACOTS: yes - Use low airways: yes - Use high airways: yes

Route

EGCN BEDFO EGKK

ID Type Via Altitude (ft/m) Position (lat/lon) Dist (leg/tot) Name
O EGCN APT - 0 / 0 53.47465 / -1.00447 - / 0 nm Doncaster Sheffield
BEDFO FIX - 14,100 / 4,298 52.22500 / -0.56333 76 / 76 nm
O EGKK APT - 0 / 0 51.14875 / -0.19247 66 / 142 nm London Gatwick

Altitude Profile

Advertisement - Login to hide

EGCN

Details ICAO EGCN (DSA)
Name Doncaster Sheffield
Region United Kingdom
Timezone Europe/London (UTC+1.0)
Stats Elevation 55 ft / 17 m (AMSL)
Location 53.475300° -1.004140°
Runways 1
Magnetic Variation 0.878° W

METAR

EGCN 220020Z 22010KT CAVOK 10/07 Q1015

Decode

TAF

TAF EGCN 212257Z 2200/2224 24007KT 9999 FEW025= TAF EGGP 212257Z 2200/2224 26009KT 9999 SCT025 PROB30 TEMPO 2200/2203 9000 -SHRA

Decode

Departure Runways

ID Width Length Bearing (true/mag) Surface Threshold Overrun Markings Lighting
02 197 ft / 60 m 9,488 ft / 2,892 m 17.62° / 18.49° ASPHALT 499 ft / 152 m 0 ft / 0 m PREC-APP EDGE THRESHOLD MALS REIL-OMNI
20 197 ft / 60 m 9,488 ft / 2,892 m 197.63° / 198.50° ASPHALT 505 ft / 154 m 0 ft / 0 m APP EDGE THRESHOLD MALS REIL-OMNI

EGKK

Details ICAO EGKK (LGW)
Name London Gatwick
Region United Kingdom
Timezone Europe/London (UTC+1.0)
Stats Elevation 188 ft / 57 m (AMSL)
Location 51.148800° -0.191847°
Runways 2
Magnetic Variation 0.320° W

METAR

EGKK 220020Z 22007KT CAVOK 11/07 Q1019

Decode

TAF

TAF EGKK 212255Z 2200/2306 24006KT 9999 SCT040 BECMG 2211/2214 7000 -RA TEMPO 2214/2218 4000 RA BKN006 BECMG 2218/2220 BKN006 TEMPO 2218/2306 3000 RADZ BKN003

Decode

Destination Runways

ID Width Length Bearing (true/mag) Surface Threshold Overrun Markings Lighting
08L 148 ft / 45 m 8,326 ft / 2,538 m 77.61° / 77.93° ASPHALT 984 ft / 300 m 0 ft / 0 m UK-APP CENTERLINE EDGE THRESHOLD SALS REIL-OMNI
08R 148 ft / 45 m 10,859 ft / 3,310 m 77.58° / 77.90° ASPHALT 1,289 ft / 393 m 0 ft / 0 m UK-PREC-APP CENTERLINE EDGE THRESHOLD CALVERT-ILS TDZ REIL-OMNI
26L 148 ft / 45 m 10,859 ft / 3,310 m 257.62° / 257.94° ASPHALT 1,378 ft / 420 m 105 ft / 32 m UK-PREC-APP CENTERLINE EDGE THRESHOLD CALVERT-ILS TDZ REIL-OMNI
26R 148 ft / 45 m 8,326 ft / 2,538 m 257.64° / 257.96° ASPHALT 1,348 ft / 411 m 0 ft / 0 m UK-APP CENTERLINE EDGE THRESHOLD SALS REIL-OMNI

Approach Navaids

Runway Type Ident Frequency Range Bearing (true/mag) Slope Elevation
08R DME IGG 110.90 MHz 18 nm / 33 km - - 274 ft / 84 m (AMSL)
08R LOC-ILS IGG 110.90 MHz 18 nm / 33 km 77.66° / 77.98 ° - 196 ft / 60 m (AMSL)
08R GS IGG 110.90 MHz 10 nm / 19 km 78.22° / 78.54 ° 3.00° 196 ft / 60 m (AMSL)
26L DME IWW 110.90 MHz 18 nm / 33 km - - 274 ft / 84 m (AMSL)
26L LOC-ILS IWW 110.90 MHz 18 nm / 33 km 257.42° / 257.73 ° - 196 ft / 60 m (AMSL)
26L GS IWW 110.90 MHz 10 nm / 19 km 258.22° / 258.54 ° 3.00° 196 ft / 60 m (AMSL)

Popular Alternatives